North Dighton, Massachusetts
Current Conditions -  °F | °C
As of 7:52 PM on Friday 26 Dec 2014 (Local Time) from KTAN Reporting Station
Clear Clear  
Wind Chill: 32°   Ceiling: Unl
Heat Index: 32°   Visibility: 10mi
Dew Point: 29°   Wind: 0mph
Humidity: 88%   Direction: NA
Pressure: 30.17"   Gusts: NA
Location:  41.86°N, 71.12°W
Report Text: KTAN 270052Z AUTO 00000KT 10SM CLR 00/M02 A3017 RMK AO2 SLP215 T00001017
Loading
Personal Weather Stations






























Interactive Weather Map New forecast layout! Learn more

10-Day Weather Forecast

Advertisements
Track Severe Weather on mobile